Time;durP1;ratioP1;P1;durP2;ratioP2;P2;SDS_P1;SDS_P2;PMS_P1;PMS_P2;Temp;Humidity;BMP_temperature;BMP_pressure;BME280_temperature;BME280_humidity;BME280_pressure;Samples;Min_cycle;Max_cycle;Signal;HPM_P1;HPM_P2
2023/12/31 00:00:11;;;;;;;11.67;5.17;;;6.50;99.90;;;;;;5064903;28;21019;-49
2023/12/31 00:02:38;;;;;;;14.43;4.63;;;6.50;99.90;;;;;;5070664;28;20210;-52
2023/12/31 00:05:05;;;;;;;9.00;4.60;;;6.50;99.90;;;;;;5070419;28;20224;-52
2023/12/31 00:07:33;;;;;;;14.13;5.17;;;6.40;99.90;;;;;;5058754;28;20185;-51
2023/12/31 00:10:00;;;;;;;10.73;4.77;;;6.40;99.90;;;;;;5084285;28;20599;-53
2023/12/31 00:12:27;;;;;;;10.00;4.90;;;6.50;99.90;;;;;;5080621;28;20217;-46
2023/12/31 00:14:54;;;;;;;13.60;4.80;;;6.40;99.90;;;;;;5084105;28;20277;-47
2023/12/31 00:17:22;;;;;;;10.53;4.50;;;6.40;99.90;;;;;;5080104;28;20185;-49
2023/12/31 00:19:49;;;;;;;11.87;4.87;;;6.40;99.90;;;;;;5080773;28;20210;-48
2023/12/31 00:22:16;;;;;;;14.70;4.27;;;6.30;99.90;;;;;;5051892;28;20859;-52
2023/12/31 00:24:43;;;;;;;13.87;4.60;;;6.30;99.90;;;;;;5084327;28;20198;-47
2023/12/31 00:27:10;;;;;;;16.50;5.17;;;6.20;99.90;;;;;;5074341;28;20201;-53
2023/12/31 00:29:36;;;;;;;7.00;4.33;;;6.30;99.90;;;;;;5082444;28;20251;-53
2023/12/31 00:32:04;;;;;;;10.60;3.93;;;6.30;99.90;;;;;;5074718;28;20662;-53
2023/12/31 00:34:32;;;;;;;12.30;4.43;;;6.20;99.90;;;;;;5076531;28;20189;-50
2023/12/31 00:36:59;;;;;;;7.57;3.83;;;6.20;99.90;;;;;;5051586;28;20201;-54
2023/12/31 00:39:25;;;;;;;10.13;4.10;;;6.20;99.90;;;;;;5081012;28;20270;-49
2023/12/31 00:41:52;;;;;;;6.70;3.73;;;6.20;99.90;;;;;;5083824;28;20247;-51
2023/12/31 00:44:19;;;;;;;8.23;4.27;;;6.10;99.90;;;;;;5078569;28;20781;-49
2023/12/31 00:46:46;;;;;;;8.77;4.20;;;6.10;99.90;;;;;;5086388;28;20211;-48
2023/12/31 00:49:13;;;;;;;6.97;3.90;;;6.10;99.90;;;;;;5081500;28;20216;-52
2023/12/31 00:51:41;;;;;;;9.93;4.30;;;6.10;99.90;;;;;;5053646;28;20214;-48
2023/12/31 00:54:08;;;;;;;9.47;3.97;;;6.10;99.90;;;;;;5070889;28;20221;-53
2023/12/31 00:56:35;;;;;;;6.57;4.07;;;6.00;99.90;;;;;;5073976;28;20317;-50
2023/12/31 00:59:04;;;;;;;9.50;4.03;;;6.00;99.90;;;;;;5084911;28;20289;-52
2023/12/31 01:01:32;;;;;;;8.47;4.30;;;6.00;99.90;;;;;;5084428;28;20190;-51
2023/12/31 01:03:59;;;;;;;12.90;4.67;;;6.00;99.90;;;;;;5084573;28;20230;-52
2023/12/31 01:06:25;;;;;;;10.27;3.87;;;5.90;99.90;;;;;;5047579;28;20302;-51
2023/12/31 01:08:57;;;;;;;5.53;4.67;;;5.90;99.90;;;;;;5082417;28;20216;-50
2023/12/31 01:11:27;;;;;;;7.60;4.23;;;5.80;99.90;;;;;;5078144;28;20182;-50
2023/12/31 01:13:53;;;;;;;8.67;4.80;;;5.80;99.90;;;;;;5085007;28;20793;-48
2023/12/31 01:16:19;;;;;;;11.70;5.03;;;5.80;99.90;;;;;;5083055;28;20193;-47
2023/12/31 01:18:46;;;;;;;12.90;4.70;;;5.80;99.90;;;;;;5080437;28;20251;-50
2023/12/31 01:21:14;;;;;;;10.60;4.50;;;5.80;99.90;;;;;;5046285;28;20213;-51
2023/12/31 01:23:40;;;;;;;5.47;4.53;;;5.80;99.90;;;;;;5088221;28;20221;-49
2023/12/31 01:26:09;;;;;;;8.90;4.70;;;5.80;99.90;;;;;;5079940;28;20296;-50
2023/12/31 01:28:35;;;;;;;10.70;4.10;;;5.80;99.90;;;;;;5077040;28;20197;-51
2023/12/31 01:31:03;;;;;;;10.00;4.47;;;5.70;99.90;;;;;;5075056;28;20251;-50
2023/12/31 01:33:29;;;;;;;7.27;4.17;;;5.80;99.90;;;;;;5079272;28;20264;-47
2023/12/31 01:35:57;;;;;;;11.47;4.20;;;5.80;99.90;;;;;;5081389;28;20228;-52
2023/12/31 01:38:24;;;;;;;8.70;4.77;;;5.80;99.90;;;;;;5059508;28;20185;-48
2023/12/31 01:40:54;;;;;;;6.80;4.00;;;5.80;99.90;;;;;;5091115;28;20296;-48
2023/12/31 01:43:23;;;;;;;10.07;4.73;;;5.80;99.90;;;;;;5078188;28;20214;-52
2023/12/31 01:45:50;;;;;;;7.87;4.10;;;5.80;99.90;;;;;;5085116;28;20208;-47
2023/12/31 01:48:18;;;;;;;7.67;4.20;;;5.70;99.90;;;;;;5085220;28;20197;-52
2023/12/31 01:50:45;;;;;;;9.87;3.77;;;5.70;99.90;;;;;;5081203;28;20198;-46
2023/12/31 01:53:13;;;;;;;6.40;3.80;;;5.70;99.90;;;;;;5062576;28;20607;-52
2023/12/31 01:55:40;;;;;;;10.17;3.57;;;5.70;99.90;;;;;;5079614;28;20190;-48
2023/12/31 01:58:07;;;;;;;4.40;3.30;;;5.70;99.90;;;;;;5085749;28;20190;-49
2023/12/31 02:00:35;;;;;;;16.70;4.40;;;5.80;99.90;;;;;;5085035;28;20459;-50
2023/12/31 02:03:05;;;;;;;8.87;3.50;;;5.70;99.90;;;;;;5079959;28;20217;-53
2023/12/31 02:05:32;;;;;;;9.23;4.23;;;5.80;99.90;;;;;;5087014;28;20181;-49
2023/12/31 02:07:59;;;;;;;6.33;3.40;;;5.80;99.90;;;;;;5037290;28;20531;-53
2023/12/31 02:10:26;;;;;;;7.67;3.63;;;5.80;99.90;;;;;;5089257;28;20186;-51
2023/12/31 02:12:54;;;;;;;7.93;3.37;;;5.90;99.90;;;;;;5080996;28;20308;-52
2023/12/31 02:15:40;;;;;;;4.57;2.63;;;5.80;99.90;;;;;;5088594;28;20200;-51
2023/12/31 02:18:07;;;;;;;7.63;2.90;;;5.90;99.90;;;;;;5080137;28;20197;-52
2023/12/31 02:20:34;;;;;;;9.67;3.20;;;5.90;99.90;;;;;;5087003;28;20213;-49
2023/12/31 02:23:01;;;;;;;7.17;3.20;;;5.90;99.90;;;;;;5049625;28;20222;-52
2023/12/31 02:25:29;;;;;;;10.37;3.47;;;5.90;99.90;;;;;;5083507;28;20198;-49
2023/12/31 02:27:58;;;;;;;8.80;2.57;;;5.90;99.90;;;;;;5082783;28;20221;-53
2023/12/31 02:30:25;;;;;;;6.20;3.10;;;5.90;99.90;;;;;;5080648;28;20194;-50
2023/12/31 02:32:52;;;;;;;6.70;3.47;;;5.90;99.90;;;;;;5081791;28;20271;-52
2023/12/31 02:35:20;;;;;;;3.20;2.90;;;6.00;99.90;;;;;;5085071;28;20232;-47
2023/12/31 02:37:46;;;;;;;4.47;2.80;;;6.00;99.90;;;;;;5068215;28;20531;-52
2023/12/31 02:40:14;;;;;;;3.27;2.50;;;6.00;99.90;;;;;;5080784;28;20990;-47
2023/12/31 02:42:41;;;;;;;6.17;2.90;;;6.00;99.90;;;;;;5071847;28;20212;-51
2023/12/31 02:45:10;;;;;;;7.10;3.13;;;6.00;99.90;;;;;;5074785;28;20195;-51
2023/12/31 02:47:37;;;;;;;6.27;2.83;;;6.00;99.90;;;;;;5078234;28;20661;-50
2023/12/31 02:50:04;;;;;;;8.47;3.10;;;6.00;99.90;;;;;;5077105;28;20186;-52
2023/12/31 02:52:31;;;;;;;7.17;2.93;;;6.00;99.90;;;;;;5079077;28;20211;-52
2023/12/31 02:54:58;;;;;;;5.67;3.60;;;6.00;99.90;;;;;;5052899;28;20251;-49
2023/12/31 02:57:25;;;;;;;6.03;2.80;;;6.00;99.90;;;;;;5081858;28;20713;-51
2023/12/31 02:59:52;;;;;;;6.97;3.03;;;6.00;99.90;;;;;;5075642;28;20275;-54
2023/12/31 03:02:20;;;;;;;4.57;2.43;;;6.00;99.90;;;;;;5082246;28;20688;-47
2023/12/31 03:04:47;;;;;;;7.17;2.70;;;6.00;99.90;;;;;;5072134;28;20245;-53
2023/12/31 03:07:15;;;;;;;3.80;2.57;;;6.10;99.90;;;;;;5074001;28;20189;-48
2023/12/31 03:09:42;;;;;;;5.57;2.70;;;6.10;99.90;;;;;;5057369;28;20205;-51
2023/12/31 03:12:09;;;;;;;5.57;2.63;;;6.10;99.90;;;;;;5079915;28;20226;-50
2023/12/31 03:14:35;;;;;;;4.47;2.13;;;6.10;99.90;;;;;;5081171;28;20243;-49
2023/12/31 03:17:04;;;;;;;2.40;2.20;;;6.10;99.90;;;;;;5073791;28;20187;-49
2023/12/31 03:19:36;;;;;;;6.50;2.17;;;6.10;99.90;;;;;;5076151;28;20210;-46
2023/12/31 03:22:04;;;;;;;5.13;2.57;;;6.10;99.90;;;;;;5080566;28;20213;-48
2023/12/31 03:24:31;;;;;;;3.70;1.93;;;6.20;99.90;;;;;;5084462;28;20193;-49
2023/12/31 03:26:58;;;;;;;6.17;2.10;;;6.20;99.90;;;;;;5053645;28;20263;-49
2023/12/31 03:29:24;;;;;;;4.87;2.10;;;6.20;99.90;;;;;;5080929;28;20198;-52
2023/12/31 03:31:51;;;;;;;5.47;2.00;;;6.20;99.90;;;;;;5081502;28;20661;-51
2023/12/31 03:34:18;;;;;;;4.37;1.77;;;6.20;99.90;;;;;;5081325;28;20190;-48
2023/12/31 03:36:47;;;;;;;6.30;2.40;;;6.20;99.90;;;;;;5072894;28;20194;-53
2023/12/31 03:39:14;;;;;;;4.30;1.87;;;6.20;99.90;;;;;;5076047;28;20216;-53
2023/12/31 03:41:41;;;;;;;7.47;2.30;;;6.20;99.90;;;;;;5053236;28;20198;-52
2023/12/31 03:44:07;;;;;;;3.47;1.73;;;6.20;99.90;;;;;;5074753;28;20441;-51
2023/12/31 03:46:34;;;;;;;3.63;1.83;;;6.20;99.90;;;;;;5077557;28;20255;-50
2023/12/31 03:49:01;;;;;;;4.50;2.07;;;6.30;99.90;;;;;;5078402;28;20198;-49
2023/12/31 03:51:28;;;;;;;3.70;1.93;;;6.30;99.90;;;;;;5080732;28;20198;-49
2023/12/31 03:53:56;;;;;;;5.33;2.10;;;6.30;99.90;;;;;;5075571;28;20218;-53
2023/12/31 03:56:23;;;;;;;3.60;1.70;;;6.30;99.90;;;;;;5054301;28;20263;-51
2023/12/31 03:58:50;;;;;;;6.23;1.60;;;6.20;99.90;;;;;;5084446;28;20190;-52
2023/12/31 04:01:17;;;;;;;6.70;1.73;;;6.30;99.90;;;;;;5082395;28;20218;-49
2023/12/31 04:03:44;;;;;;;5.20;2.20;;;6.30;99.90;;;;;;5083641;28;20271;-53
2023/12/31 04:06:10;;;;;;;4.87;1.97;;;6.30;99.90;;;;;;5074842;28;20346;-51
2023/12/31 04:08:37;;;;;;;5.80;2.03;;;6.30;99.90;;;;;;5080358;28;20197;-51
2023/12/31 04:11:06;;;;;;;2.97;1.63;;;6.30;99.90;;;;;;5044819;28;21846;-54
2023/12/31 04:13:33;;;;;;;5.33;1.80;;;6.30;99.90;;;;;;5076487;28;20264;-51
2023/12/31 04:16:00;;;;;;;3.50;1.60;;;6.30;99.90;;;;;;5074496;28;20198;-51
2023/12/31 04:18:27;;;;;;;8.23;1.63;;;6.30;99.90;;;;;;5074753;28;20247;-49
2023/12/31 04:20:54;;;;;;;4.03;2.20;;;6.30;99.90;;;;;;5076923;28;20210;-51
2023/12/31 04:23:20;;;;;;;7.23;1.77;;;6.30;99.90;;;;;;5079513;28;20229;-51
2023/12/31 04:25:47;;;;;;;3.73;1.70;;;6.30;99.90;;;;;;5078342;28;20268;-53
2023/12/31 04:28:15;;;;;;;3.97;2.03;;;6.20;99.90;;;;;;5048377;28;20766;-51
2023/12/31 04:30:43;;;;;;;2.90;1.60;;;6.30;99.90;;;;;;5072949;28;21465;-54
2023/12/31 04:33:09;;;;;;;6.83;1.83;;;6.30;99.90;;;;;;5078357;28;20215;-48
2023/12/31 04:35:36;;;;;;;6.77;2.10;;;6.20;99.90;;;;;;5082154;28;20251;-52
2023/12/31 04:38:04;;;;;;;4.60;1.47;;;6.30;99.90;;;;;;5073731;28;20193;-48
2023/12/31 04:40:31;;;;;;;8.20;1.50;;;6.30;99.90;;;;;;5082582;28;20221;-51
2023/12/31 04:42:58;;;;;;;3.70;1.63;;;6.30;99.90;;;;;;5041495;28;20214;-48
2023/12/31 04:45:26;;;;;;;3.47;1.60;;;6.30;99.90;;;;;;5084299;28;20187;-51
2023/12/31 04:47:53;;;;;;;2.23;1.63;;;6.30;99.90;;;;;;5081283;28;20261;-53
2023/12/31 04:50:20;;;;;;;4.57;1.57;;;6.30;99.90;;;;;;5083052;28;20186;-48
2023/12/31 04:52:47;;;;;;;4.00;1.60;;;6.30;99.90;;;;;;5065249;28;20926;-54
2023/12/31 04:55:14;;;;;;;3.13;1.63;;;6.30;99.90;;;;;;5077592;28;20215;-52
2023/12/31 04:57:41;;;;;;;8.73;1.97;;;6.30;99.90;;;;;;5061816;28;20209;-52
2023/12/31 05:00:08;;;;;;;3.07;1.60;;;6.30;99.90;;;;;;5065534;28;20217;-51
2023/12/31 05:02:36;;;;;;;2.77;1.60;;;6.30;99.90;;;;;;5082382;28;20221;-52
2023/12/31 05:05:06;;;;;;;2.53;1.47;;;6.30;99.90;;;;;;5078318;28;20197;-52
2023/12/31 05:07:33;;;;;;;2.77;1.30;;;6.30;99.90;;;;;;5075776;28;20224;-55
2023/12/31 05:10:01;;;;;;;4.57;2.20;;;6.30;99.90;;;;;;5072523;28;20202;-48
2023/12/31 05:12:28;;;;;;;3.50;1.60;;;6.30;99.90;;;;;;5077423;28;20232;-49
2023/12/31 05:14:54;;;;;;;2.13;1.30;;;6.30;99.90;;;;;;5047092;28;20279;-49
2023/12/31 05:17:21;;;;;;;6.57;1.80;;;6.20;99.90;;;;;;5076085;28;20197;-54
2023/12/31 05:19:49;;;;;;;3.63;1.90;;;6.30;99.90;;;;;;5077964;28;20677;-51
2023/12/31 05:22:16;;;;;;;5.00;1.50;;;6.30;99.90;;;;;;5075513;28;20218;-55
2023/12/31 05:24:44;;;;;;;4.13;1.77;;;6.20;99.90;;;;;;5080983;28;20198;-51
2023/12/31 05:27:11;;;;;;;4.47;1.80;;;6.20;99.90;;;;;;5082600;28;20186;-51
2023/12/31 05:29:38;;;;;;;9.00;1.77;;;6.30;99.90;;;;;;5047288;28;20275;-52
2023/12/31 05:32:05;;;;;;;3.23;1.80;;;6.30;99.90;;;;;;5082873;28;20187;-48
2023/12/31 05:34:32;;;;;;;4.07;1.77;;;6.30;99.90;;;;;;5080036;28;20942;-51
2023/12/31 05:37:01;;;;;;;3.40;1.33;;;6.30;99.90;;;;;;5082544;28;20202;-50
2023/12/31 05:39:28;;;;;;;5.23;1.73;;;6.30;99.90;;;;;;5074119;28;20225;-48
2023/12/31 05:41:55;;;;;;;4.83;1.40;;;6.30;99.90;;;;;;5075658;28;20221;-47
2023/12/31 05:44:22;;;;;;;5.60;1.50;;;6.30;99.90;;;;;;5050742;28;20205;-50
2023/12/31 05:46:49;;;;;;;2.67;1.67;;;6.30;99.90;;;;;;5078581;28;20202;-49
2023/12/31 05:49:16;;;;;;;4.57;1.30;;;6.30;99.90;;;;;;5081331;28;20251;-50
2023/12/31 05:51:42;;;;;;;6.20;1.70;;;6.30;99.90;;;;;;5081123;28;20961;-49
2023/12/31 05:54:11;;;;;;;6.67;1.80;;;6.30;99.90;;;;;;5070854;28;20222;-52
2023/12/31 05:56:37;;;;;;;6.23;1.97;;;6.30;99.90;;;;;;5080818;28;20195;-51
2023/12/31 05:59:04;;;;;;;2.50;1.63;;;6.30;99.90;;;;;;5052743;28;20280;-50
2023/12/31 06:01:31;;;;;;;3.87;1.60;;;6.30;99.90;;;;;;5078247;28;20218;-50
2023/12/31 06:03:58;;;;;;;6.07;2.10;;;6.30;99.90;;;;;;5082962;28;20221;-48
2023/12/31 06:06:25;;;;;;;2.30;1.60;;;6.30;99.90;;;;;;5075371;28;20863;-51
2023/12/31 06:08:52;;;;;;;6.77;1.90;;;6.40;99.90;;;;;;5070248;28;20205;-49
2023/12/31 06:11:20;;;;;;;4.77;1.57;;;6.30;99.90;;;;;;5083543;28;20186;-52
2023/12/31 06:13:47;;;;;;;7.53;1.80;;;6.30;99.90;;;;;;5082929;28;20275;-50
2023/12/31 06:16:14;;;;;;;4.87;1.87;;;6.30;99.90;;;;;;5055175;28;20250;-53
2023/12/31 06:18:41;;;;;;;4.13;1.70;;;6.30;99.90;;;;;;5077778;28;20259;-49
2023/12/31 06:21:07;;;;;;;8.13;2.00;;;6.30;99.90;;;;;;5083474;28;20214;-51
2023/12/31 06:23:34;;;;;;;3.53;1.50;;;6.30;99.90;;;;;;5081478;28;20229;-47
2023/12/31 06:26:01;;;;;;;5.37;1.97;;;6.20;99.90;;;;;;5080994;28;20208;-49
2023/12/31 06:28:29;;;;;;;3.43;1.77;;;6.20;99.90;;;;;;5079959;28;20194;-51
2023/12/31 06:30:56;;;;;;;4.00;1.90;;;6.20;99.90;;;;;;5050871;28;20206;-49
2023/12/31 06:33:24;;;;;;;9.23;1.90;;;6.20;99.90;;;;;;5083812;28;20586;-52
2023/12/31 06:35:51;;;;;;;3.27;1.50;;;6.20;99.90;;;;;;5084542;28;20229;-48
2023/12/31 06:38:18;;;;;;;5.10;1.70;;;6.20;99.90;;;;;;5079825;28;20247;-52
2023/12/31 06:40:45;;;;;;;4.80;1.83;;;6.20;99.90;;;;;;5072309;28;21918;-50
2023/12/31 06:43:12;;;;;;;4.83;1.77;;;6.20;99.90;;;;;;5082200;28;20271;-53
2023/12/31 06:45:40;;;;;;;7.10;1.70;;;6.20;99.90;;;;;;5047891;28;20266;-51
2023/12/31 06:48:07;;;;;;;5.33;1.80;;;6.20;99.90;;;;;;5080278;28;20250;-49
2023/12/31 06:50:34;;;;;;;9.40;1.50;;;6.20;99.90;;;;;;5081044;28;20255;-48
2023/12/31 06:53:01;;;;;;;3.90;1.47;;;6.20;99.90;;;;;;5076481;28;20398;-50
2023/12/31 06:55:27;;;;;;;2.30;1.53;;;6.20;99.90;;;;;;5082422;28;20194;-47
2023/12/31 06:57:54;;;;;;;6.80;1.90;;;6.20;99.90;;;;;;5084539;28;20194;-51
2023/12/31 07:00:22;;;;;;;5.90;1.87;;;6.20;99.90;;;;;;5054009;28;20274;-49
2023/12/31 07:02:50;;;;;;;5.27;2.00;;;6.20;99.90;;;;;;5085808;28;20846;-53
2023/12/31 07:05:17;;;;;;;4.00;1.67;;;6.20;99.90;;;;;;5073168;28;20204;-51
2023/12/31 07:07:44;;;;;;;1.73;1.40;;;6.20;99.90;;;;;;5073732;28;20284;-49
2023/12/31 07:10:11;;;;;;;1.50;1.40;;;6.10;99.90;;;;;;5082659;28;20336;-53
2023/12/31 07:12:37;;;;;;;9.77;2.20;;;6.10;99.90;;;;;;5078070;28;20623;-52
2023/12/31 07:15:06;;;;;;;3.60;1.70;;;6.10;99.90;;;;;;5049526;28;22218;-49
2023/12/31 07:17:33;;;;;;;3.97;2.10;;;6.20;99.90;;;;;;5084335;28;20274;-52
2023/12/31 07:20:01;;;;;;;1.57;1.47;;;6.10;99.90;;;;;;5084271;28;20202;-50
2023/12/31 07:22:28;;;;;;;3.30;1.63;;;6.10;99.90;;;;;;5080088;28;20221;-52
2023/12/31 07:24:55;;;;;;;4.50;1.77;;;6.10;99.90;;;;;;5068756;28;20222;-47
2023/12/31 07:27:22;;;;;;;3.97;1.80;;;6.00;99.90;;;;;;5064022;28;20186;-52
2023/12/31 07:29:49;;;;;;;2.33;1.60;;;6.00;99.90;;;;;;5064598;28;20613;-53
2023/12/31 07:32:16;;;;;;;5.20;1.90;;;6.00;99.90;;;;;;5059088;28;20777;-52
2023/12/31 07:34:43;;;;;;;4.00;2.07;;;6.00;99.90;;;;;;5074489;28;20202;-49
2023/12/31 07:37:11;;;;;;;2.53;1.60;;;6.00;99.90;;;;;;5078985;28;20198;-49
2023/12/31 07:39:40;;;;;;;2.77;1.70;;;6.00;99.90;;;;;;5071628;28;20238;-52
2023/12/31 07:42:07;;;;;;;2.50;1.77;;;6.00;99.90;;;;;;5058155;28;20230;-49
2023/12/31 07:44:34;;;;;;;3.33;2.00;;;6.00;99.90;;;;;;5087990;28;20201;-48
2023/12/31 07:47:03;;;;;;;5.03;1.80;;;6.00;99.90;;;;;;5051260;28;20368;-50
2023/12/31 07:49:30;;;;;;;3.17;1.77;;;5.90;99.90;;;;;;5077662;28;20205;-48
2023/12/31 07:51:57;;;;;;;4.80;1.50;;;5.90;99.90;;;;;;5072471;28;20196;-48
2023/12/31 07:54:25;;;;;;;5.13;2.27;;;5.90;99.90;;;;;;5067670;28;20753;-51
2023/12/31 07:56:52;;;;;;;1.87;1.77;;;5.90;99.90;;;;;;5073074;28;20908;-51
2023/12/31 07:59:20;;;;;;;3.77;1.60;;;5.90;99.90;;;;;;5084269;28;20254;-50
2023/12/31 08:01:47;;;;;;;2.90;1.70;;;5.90;99.90;;;;;;5039404;28;20780;-50
2023/12/31 08:04:13;;;;;;;4.23;1.50;;;5.90;99.90;;;;;;5071214;28;20222;-50
2023/12/31 08:06:40;;;;;;;3.83;1.40;;;5.90;99.90;;;;;;5073291;28;20194;-50
2023/12/31 08:09:10;;;;;;;6.40;1.93;;;5.80;99.90;;;;;;5074926;28;20958;-49
2023/12/31 08:11:38;;;;;;;5.00;2.23;;;5.90;99.90;;;;;;5061646;28;20247;-48
2023/12/31 08:14:05;;;;;;;4.73;1.87;;;5.90;99.90;;;;;;5068252;28;20231;-49
2023/12/31 08:16:32;;;;;;;2.27;1.57;;;5.90;99.90;;;;;;5027145;28;21504;-51
2023/12/31 08:18:59;;;;;;;3.90;1.57;;;5.90;99.90;;;;;;5063764;28;20202;-50
2023/12/31 08:21:27;;;;;;;4.20;1.87;;;5.80;99.90;;;;;;5067692;28;20219;-49
2023/12/31 08:23:54;;;;;;;2.43;1.40;;;5.80;99.90;;;;;;5072303;28;20218;-48
2023/12/31 08:26:20;;;;;;;2.23;1.90;;;5.80;99.90;;;;;;5067442;28;20672;-47
2023/12/31 08:28:49;;;;;;;6.30;1.87;;;5.90;99.90;;;;;;5063580;28;20187;-48
2023/12/31 08:31:16;;;;;;;3.83;1.83;;;5.90;99.90;;;;;;5058055;28;20216;-51
2023/12/31 08:33:43;;;;;;;3.53;1.87;;;5.80;99.90;;;;;;5040312;28;20628;-47
2023/12/31 08:36:10;;;;;;;4.73;1.97;;;5.80;99.90;;;;;;5083338;28;20248;-49
2023/12/31 08:38:37;;;;;;;2.53;1.70;;;5.80;99.90;;;;;;5065109;28;20199;-50
2023/12/31 08:41:04;;;;;;;2.23;1.40;;;5.90;99.90;;;;;;5067849;28;20194;-47
2023/12/31 08:43:31;;;;;;;3.57;1.80;;;5.80;99.90;;;;;;5062998;28;20949;-49
2023/12/31 08:45:59;;;;;;;5.67;2.30;;;5.80;99.90;;;;;;5065659;28;20205;-51
2023/12/31 08:48:26;;;;;;;3.13;1.77;;;5.90;99.90;;;;;;5017843;28;20310;-50
2023/12/31 08:50:53;;;;;;;2.10;1.80;;;5.90;99.90;;;;;;5069102;28;20204;-50
2023/12/31 08:53:20;;;;;;;4.03;1.50;;;5.80;99.90;;;;;;5054910;28;20227;-47
2023/12/31 08:55:47;;;;;;;5.67;1.70;;;5.90;99.90;;;;;;5087635;27;20208;-52
2023/12/31 08:58:14;;;;;;;3.77;2.40;;;5.90;99.90;;;;;;5070734;28;20259;-51
2023/12/31 09:00:42;;;;;;;3.43;1.90;;;5.90;99.90;;;;;;5055030;28;20202;-49
2023/12/31 09:03:10;;;;;;;3.50;2.47;;;6.00;99.90;;;;;;5030664;28;20234;-52
2023/12/31 09:05:37;;;;;;;7.10;3.60;;;6.00;99.90;;;;;;5069194;28;20888;-48
2023/12/31 09:08:05;;;;;;;3.83;2.20;;;6.00;99.90;;;;;;5079232;28;20251;-50
2023/12/31 09:10:32;;;;;;;3.80;2.30;;;6.00;99.90;;;;;;5070844;28;20661;-54
2023/12/31 09:12:59;;;;;;;4.07;2.23;;;6.10;99.90;;;;;;5076692;28;20233;-52
2023/12/31 09:15:26;;;;;;;3.63;1.87;;;6.10;99.90;;;;;;5057243;28;20653;-50
2023/12/31 09:17:53;;;;;;;3.30;1.93;;;6.10;99.90;;;;;;5028099;28;20206;-49
2023/12/31 09:20:22;;;;;;;7.23;1.80;;;6.10;99.90;;;;;;5082221;28;20556;-52
2023/12/31 09:22:52;;;;;;;2.43;1.80;;;6.20;99.90;;;;;;5069717;28;20348;-47
2023/12/31 09:25:19;;;;;;;5.03;2.20;;;6.20;99.90;;;;;;5059561;28;20306;-48
2023/12/31 09:27:46;;;;;;;3.17;2.30;;;6.20;99.90;;;;;;5065553;28;20199;-47
2023/12/31 09:30:13;;;;;;;6.87;2.50;;;6.20;99.90;;;;;;5067179;28;20194;-47
2023/12/31 09:32:40;;;;;;;2.23;1.77;;;6.30;99.90;;;;;;5057136;28;20259;-48
2023/12/31 09:35:07;;;;;;;5.50;2.20;;;6.30;99.90;;;;;;5043907;28;20212;-48
2023/12/31 09:37:36;;;;;;;9.63;2.30;;;6.30;99.90;;;;;;5067106;28;20491;-49
2023/12/31 09:40:04;;;;;;;2.87;2.03;;;6.30;99.90;;;;;;5061753;28;20197;-53
2023/12/31 09:42:41;;;;;;;3.73;1.90;;;6.30;99.90;;;;;;5076443;28;20217;-52
2023/12/31 09:45:09;;;;;;;6.03;2.07;;;6.30;99.90;;;;;;5080297;28;20211;-48
2023/12/31 09:47:35;;;;;;;2.43;1.90;;;6.40;99.90;;;;;;5071697;28;20190;-50
2023/12/31 09:50:03;;;;;;;3.07;1.73;;;6.40;99.90;;;;;;5055485;28;20213;-51
2023/12/31 09:52:32;;;;;;;3.37;1.73;;;6.40;99.90;;;;;;5066784;28;20229;-48
2023/12/31 09:55:02;;;;;;;3.83;2.03;;;6.40;99.90;;;;;;5067945;28;20259;-50
2023/12/31 09:57:33;;;;;;;1.90;1.67;;;6.50;99.90;;;;;;5073876;28;20198;-47
2023/12/31 10:00:04;;;;;;;3.63;1.93;;;6.40;99.90;;;;;;5073796;28;20205;-54
2023/12/31 10:02:37;;;;;;;4.90;2.10;;;6.50;99.90;;;;;;5072437;28;20336;-51
2023/12/31 10:05:05;;;;;;;3.50;1.90;;;6.50;99.90;;;;;;5037199;28;20209;-54
2023/12/31 10:07:32;;;;;;;6.97;2.40;;;6.50;99.90;;;;;;5071643;28;20205;-52
2023/12/31 10:10:02;;;;;;;2.50;1.83;;;6.50;99.90;;;;;;5080573;28;20605;-54
2023/12/31 10:12:30;;;;;;;2.17;1.53;;;6.50;99.90;;;;;;5075769;28;20775;-48
2023/12/31 10:14:57;;;;;;;2.63;1.50;;;6.50;99.90;;;;;;5057716;28;20251;-51
2023/12/31 10:17:25;;;;;;;3.43;1.90;;;6.60;99.90;;;;;;5076084;28;20198;-53
2023/12/31 10:19:52;;;;;;;1.77;1.50;;;6.60;99.90;;;;;;5030146;28;21583;-52
2023/12/31 10:22:19;;;;;;;3.33;2.00;;;6.60;99.90;;;;;;5083187;28;20681;-49
2023/12/31 10:24:46;;;;;;;5.20;1.73;;;6.70;99.90;;;;;;5071485;28;20206;-54
2023/12/31 10:27:15;;;;;;;3.43;1.50;;;6.70;99.90;;;;;;5066167;28;20190;-54
2023/12/31 10:29:43;;;;;;;2.43;1.50;;;6.70;99.90;;;;;;5075184;28;20300;-54
2023/12/31 10:32:10;;;;;;;4.47;1.67;;;6.70;99.90;;;;;;5081685;28;20194;-50
2023/12/31 10:34:37;;;;;;;2.10;1.87;;;6.70;99.90;;;;;;5066759;28;20263;-53
2023/12/31 10:37:05;;;;;;;2.33;1.37;;;6.80;99.90;;;;;;5076075;28;20201;-47
2023/12/31 10:39:33;;;;;;;3.23;1.60;;;6.80;99.90;;;;;;5073431;28;20267;-54
2023/12/31 10:42:04;;;;;;;2.03;1.30;;;6.80;99.90;;;;;;5064181;28;20225;-47
2023/12/31 10:44:34;;;;;;;2.37;1.40;;;6.80;99.90;;;;;;5080988;28;20220;-53
2023/12/31 10:47:05;;;;;;;3.07;2.23;;;6.80;99.90;;;;;;5074362;28;20201;-51
2023/12/31 10:49:33;;;;;;;3.60;1.90;;;6.90;99.90;;;;;;5075582;28;20255;-52
2023/12/31 10:52:02;;;;;;;1.23;1.10;;;6.90;99.90;;;;;;5032867;28;21275;-53
2023/12/31 10:54:40;;;;;;;4.60;1.70;;;6.90;99.90;;;;;;5068567;28;20689;-51
2023/12/31 10:57:09;;;;;;;2.77;1.30;;;7.00;99.90;;;;;;5071184;28;20914;-50
2023/12/31 10:59:39;;;;;;;2.70;1.70;;;7.00;99.90;;;;;;5067703;28;20210;-55
2023/12/31 11:02:08;;;;;;;1.80;1.33;;;7.00;99.90;;;;;;5068172;28;20214;-54
2023/12/31 11:04:35;;;;;;;3.93;1.63;;;7.00;99.90;;;;;;5065556;28;20201;-54
2023/12/31 11:07:03;;;;;;;3.63;1.50;;;7.00;99.90;;;;;;5038659;28;20222;-54
2023/12/31 11:09:33;;;;;;;3.27;1.33;;;7.10;99.90;;;;;;5073250;28;20198;-53
2023/12/31 11:12:00;;;;;;;3.57;2.10;;;7.10;99.90;;;;;;5075456;28;20217;-47
2023/12/31 11:14:31;;;;;;;3.30;1.67;;;7.10;99.90;;;;;;5066955;28;20209;-55
2023/12/31 11:17:29;;;;;;;2.40;1.63;;;7.10;99.90;;;;;;5073674;28;20865;-51
2023/12/31 11:20:32;;;;;;;2.27;1.60;;;7.10;99.90;;;;;;5072885;28;20678;-50
2023/12/31 11:23:08;;;;;;;1.83;1.73;;;7.10;99.90;;;;;;5046466;28;20252;-53
2023/12/31 11:25:38;;;;;;;3.97;1.77;;;7.10;99.90;;;;;;5078231;28;20193;-50
2023/12/31 11:28:07;;;;;;;3.40;1.83;;;7.10;99.90;;;;;;5064918;28;20193;-57
2023/12/31 11:30:51;;;;;;;2.97;1.97;;;7.10;99.90;;;;;;5078161;28;20202;-47
2023/12/31 11:33:20;;;;;;;2.03;1.80;;;7.20;99.90;;;;;;5063289;28;20203;-54
2023/12/31 11:35:49;;;;;;;2.43;1.70;;;7.20;99.90;;;;;;5084544;28;20190;-51
2023/12/31 11:38:18;;;;;;;3.00;1.87;;;7.20;99.90;;;;;;5038604;28;20854;-57
2023/12/31 11:40:46;;;;;;;2.33;1.70;;;7.20;99.90;;;;;;5071948;28;20212;-51
2023/12/31 11:43:14;;;;;;;2.90;1.67;;;7.30;99.90;;;;;;5072613;28;20305;-58
2023/12/31 11:45:42;;;;;;;2.87;1.70;;;7.30;99.90;;;;;;5076437;28;20191;-49
2023/12/31 11:48:24;;;;;;;3.23;1.77;;;7.30;99.90;;;;;;5077916;28;20228;-55
2023/12/31 11:50:52;;;;;;;2.33;1.63;;;7.30;99.90;;;;;;5074612;28;20834;-54
2023/12/31 11:53:22;;;;;;;1.90;1.50;;;7.40;99.90;;;;;;5049830;28;20217;-49
2023/12/31 11:55:54;;;;;;;1.63;1.33;;;7.40;99.90;;;;;;5079057;28;20193;-50
2023/12/31 11:58:21;;;;;;;3.50;1.70;;;7.40;99.90;;;;;;5077275;28;20282;-51
2023/12/31 12:00:49;;;;;;;2.50;1.90;;;7.40;99.90;;;;;;5080530;28;20205;-49
2023/12/31 12:16:35;;;;;;;2.80;1.87;;;7.50;99.90;;;;;;5059196;27;20667;-50
2023/12/31 12:19:05;;;;;;;2.60;1.60;;;8.20;99.90;;;;;;5080363;28;20190;-49
2023/12/31 12:21:32;;;;;;;2.33;1.73;;;8.20;99.90;;;;;;5034585;28;20494;-50
2023/12/31 12:23:59;;;;;;;1.97;1.70;;;8.20;99.90;;;;;;5079083;22;20228;-51
2023/12/31 12:26:26;;;;;;;1.90;1.43;;;8.10;99.90;;;;;;5016104;28;20223;-55
2023/12/31 12:28:55;;;;;;;4.40;1.80;;;8.00;99.90;;;;;;5005344;28;20203;-56
2023/12/31 12:31:22;;;;;;;4.30;1.50;;;8.00;99.90;;;;;;4999318;28;20435;-54
2023/12/31 12:33:54;;;;;;;3.17;1.50;;;7.90;99.90;;;;;;5022834;28;20222;-53
2023/12/31 12:36:21;;;;;;;3.37;1.80;;;7.90;99.90;;;;;;5004735;28;20192;-54
2023/12/31 12:38:48;;;;;;;2.00;1.53;;;7.90;99.90;;;;;;4987209;28;20354;-57
2023/12/31 12:41:20;;;;;;;5.43;1.77;;;7.80;99.90;;;;;;5003329;28;20679;-52
2023/12/31 12:43:50;;;;;;;1.60;1.50;;;7.90;99.90;;;;;;5011089;28;20227;-54
2023/12/31 12:46:17;;;;;;;1.63;1.40;;;7.80;99.90;;;;;;5012783;28;20562;-52
2023/12/31 12:48:49;;;;;;;2.73;2.33;;;7.80;99.90;;;;;;5016706;28;20195;-52
2023/12/31 12:51:17;;;;;;;3.60;1.70;;;7.90;99.90;;;;;;5010543;28;21060;-54
2023/12/31 12:53:44;;;;;;;2.13;1.90;;;7.90;99.90;;;;;;4998914;28;20341;-54
2023/12/31 12:56:11;;;;;;;2.53;2.10;;;7.90;99.90;;;;;;5018472;28;20883;-54
2023/12/31 12:58:38;;;;;;;3.57;1.93;;;7.80;99.90;;;;;;4994363;28;20232;-56
2023/12/31 13:01:05;;;;;;;3.50;1.90;;;7.90;99.90;;;;;;5023953;28;20227;-56
2023/12/31 13:03:32;;;;;;;2.40;1.70;;;7.90;99.90;;;;;;4995983;28;20224;-56
2023/12/31 13:05:59;;;;;;;2.20;1.77;;;7.90;99.90;;;;;;5016237;28;20227;-55
2023/12/31 13:08:28;;;;;;;3.17;1.73;;;7.80;99.90;;;;;;5014684;28;20207;-50
2023/12/31 13:10:55;;;;;;;2.07;1.63;;;7.80;99.90;;;;;;4978651;28;20255;-55